Time;durP1;ratioP1;P1;durP2;ratioP2;P2;SDS_P1;SDS_P2;PMS_P1;PMS_P2;Temp;Humidity;BMP_temperature;BMP_pressure;BME280_temperature;BME280_humidity;BME280_pressure;Samples;Min_cycle;Max_cycle;Signal;HPM_P1;HPM_P2
2022/11/29 00:00:51;;;;;;;114.65;28.75;;;8.90;99.90;;;;;;5107303;27;20043;-73
2022/11/29 00:03:17;;;;;;;101.35;27.05;;;8.90;99.90;;;;;;5126987;27;20434;-73
2022/11/29 00:05:42;;;;;;;112.65;29.60;;;8.90;99.90;;;;;;5118295;27;20074;-72
2022/11/29 00:08:08;;;;;;;112.20;28.40;;;8.90;99.90;;;;;;5102555;27;20485;-73
2022/11/29 00:10:37;;;;;;;96.05;25.15;;;8.80;99.90;;;;;;5115923;27;20043;-72
2022/11/29 00:13:03;;;;;;;129.85;30.38;;;8.90;99.90;;;;;;5095138;27;20078;-73
2022/11/29 00:15:29;;;;;;;93.00;24.70;;;8.80;99.90;;;;;;5122552;27;20729;-72
2022/11/29 00:17:54;;;;;;;94.43;26.02;;;8.80;99.90;;;;;;5128236;27;20051;-72
2022/11/29 00:20:21;;;;;;;107.18;27.75;;;8.80;99.90;;;;;;5109937;27;20051;-72
2022/11/29 00:22:47;;;;;;;91.82;26.30;;;8.80;99.90;;;;;;5104912;27;20027;-72
2022/11/29 00:25:13;;;;;;;108.25;26.20;;;8.80;99.90;;;;;;5086937;27;20052;-72
2022/11/29 00:27:38;;;;;;;93.20;26.73;;;8.80;99.90;;;;;;5119376;27;20100;-72
2022/11/29 00:30:05;;;;;;;87.47;23.60;;;8.80;99.90;;;;;;5120711;27;20390;-72
2022/11/29 00:32:30;;;;;;;115.32;29.70;;;8.80;99.90;;;;;;5133757;27;20039;-73
2022/11/29 00:34:56;;;;;;;90.28;26.77;;;8.80;99.90;;;;;;5098066;27;20093;-72
2022/11/29 00:37:22;;;;;;;96.93;27.20;;;8.80;99.90;;;;;;5112049;27;20042;-72
2022/11/29 00:39:47;;;;;;;91.65;27.00;;;8.80;99.90;;;;;;5098942;27;20138;-72
2022/11/29 00:42:14;;;;;;;146.63;32.38;;;8.80;99.90;;;;;;5091550;27;20039;-73
2022/11/29 00:44:40;;;;;;;120.82;30.27;;;8.80;99.90;;;;;;5106746;27;20054;-72
2022/11/29 00:47:05;;;;;;;125.70;30.30;;;8.80;99.90;;;;;;5076373;27;20513;-73
2022/11/29 00:49:31;;;;;;;86.20;25.55;;;8.80;99.90;;;;;;5085275;27;20126;-73
2022/11/29 00:51:57;;;;;;;97.45;27.63;;;8.80;99.90;;;;;;5109184;27;20048;-72
2022/11/29 00:54:22;;;;;;;113.35;28.35;;;8.70;99.90;;;;;;5101906;27;20089;-72
2022/11/29 00:56:48;;;;;;;102.15;27.63;;;8.70;99.90;;;;;;5117747;27;20088;-72
2022/11/29 00:59:14;;;;;;;89.40;27.52;;;8.80;99.90;;;;;;5098116;27;20425;-73
2022/11/29 01:01:39;;;;;;;99.82;28.27;;;8.80;99.90;;;;;;5112889;27;20043;-73
2022/11/29 01:04:05;;;;;;;100.70;29.40;;;8.70;99.90;;;;;;5110737;27;20093;-72
2022/11/29 01:06:31;;;;;;;109.13;28.52;;;8.80;99.90;;;;;;5091636;27;20038;-72
2022/11/29 01:08:56;;;;;;;155.38;31.70;;;8.80;99.90;;;;;;5075454;27;20134;-72
2022/11/29 01:11:25;;;;;;;133.43;30.65;;;8.70;99.90;;;;;;5122235;27;20050;-72
2022/11/29 01:13:53;;;;;;;113.80;30.42;;;8.70;99.90;;;;;;5119562;27;20052;-72
2022/11/29 01:16:19;;;;;;;93.68;27.95;;;8.70;99.90;;;;;;5128338;27;20053;-72
2022/11/29 01:18:45;;;;;;;121.05;29.50;;;8.70;99.90;;;;;;5132216;27;20044;-72
2022/11/29 01:21:16;;;;;;;83.80;25.60;;;8.70;99.90;;;;;;5117053;27;20054;-72
2022/11/29 01:23:43;;;;;;;117.45;30.75;;;8.70;99.90;;;;;;5132949;27;20440;-72
2022/11/29 01:26:12;;;;;;;142.70;30.20;;;8.70;99.90;;;;;;5128279;27;20048;-72
2022/11/29 01:28:39;;;;;;;124.63;32.30;;;8.70;99.90;;;;;;5106840;27;20085;-72
2022/11/29 01:31:36;;;;;;;101.65;27.90;;;8.70;99.90;;;;;;5110117;27;20047;-71
2022/11/29 01:34:03;;;;;;;125.05;31.05;;;8.70;99.90;;;;;;5105591;27;20050;-72
2022/11/29 01:36:29;;;;;;;117.53;28.45;;;8.70;99.90;;;;;;5122180;27;20043;-72
2022/11/29 01:38:57;;;;;;;118.32;31.23;;;8.70;99.90;;;;;;5102012;28;20048;-72
2022/11/29 01:41:25;;;;;;;101.13;27.55;;;8.70;99.90;;;;;;5135181;27;20039;-72
2022/11/29 01:44:03;;;;;;;167.15;34.83;;;8.60;99.90;;;;;;5134106;27;20045;-72
2022/11/29 01:46:31;;;;;;;115.90;29.25;;;8.70;99.90;;;;;;5131498;27;20050;-73
2022/11/29 01:49:08;;;;;;;116.75;29.20;;;8.60;99.90;;;;;;5128758;27;20073;-72
2022/11/29 01:51:36;;;;;;;117.63;30.05;;;8.60;99.90;;;;;;5128629;27;20043;-72
2022/11/29 01:54:02;;;;;;;99.13;26.83;;;8.60;99.90;;;;;;5125082;27;20051;-72
2022/11/29 01:56:32;;;;;;;91.60;27.30;;;8.60;99.90;;;;;;5107578;27;20040;-72
2022/11/29 01:59:01;;;;;;;94.30;27.20;;;8.60;99.90;;;;;;5106982;27;20709;-73
2022/11/29 02:01:27;;;;;;;122.00;30.23;;;8.70;99.90;;;;;;5118987;27;20061;-72
2022/11/29 02:03:53;;;;;;;109.03;29.90;;;8.70;99.90;;;;;;5104957;27;20130;-72
2022/11/29 02:06:19;;;;;;;97.35;28.33;;;8.60;99.90;;;;;;5096592;27;20144;-72
2022/11/29 02:08:45;;;;;;;117.97;29.13;;;8.70;99.90;;;;;;5116696;27;20788;-72
2022/11/29 02:11:31;;;;;;;105.50;26.50;;;8.70;99.90;;;;;;5103738;27;20088;-72
2022/11/29 02:14:38;;;;;;;108.70;27.15;;;8.70;99.90;;;;;;5106453;27;20047;-73
2022/11/29 02:17:35;;;;;;;99.38;26.42;;;8.60;99.90;;;;;;5127157;27;20124;-72
2022/11/29 02:20:15;;;;;;;90.70;24.88;;;8.60;99.90;;;;;;5122777;27;20039;-72
2022/11/29 02:22:56;;;;;;;105.57;26.13;;;8.60;99.90;;;;;;5115127;27;20043;-72
2022/11/29 02:25:31;;;;;;;85.40;24.25;;;8.60;99.90;;;;;;5120153;27;20041;-72
2022/11/29 02:28:16;;;;;;;100.38;25.92;;;8.60;99.90;;;;;;5123873;27;20047;-72
2022/11/29 02:31:15;;;;;;;123.75;30.88;;;8.60;99.90;;;;;;5128957;27;20130;-72
2022/11/29 02:34:05;;;;;;;148.43;30.70;;;8.60;99.90;;;;;;5113014;27;20123;-72
2022/11/29 02:36:33;;;;;;;104.25;27.00;;;8.60;99.90;;;;;;5131566;27;20042;-72
2022/11/29 02:39:18;;;;;;;130.70;30.30;;;8.60;99.90;;;;;;5130439;27;20047;-72
2022/11/29 02:42:11;;;;;;;111.57;29.45;;;8.60;99.90;;;;;;5125523;27;20067;-72
2022/11/29 02:44:58;;;;;;;75.28;23.52;;;8.60;99.90;;;;;;5106569;28;20039;-72
2022/11/29 02:48:02;;;;;;;152.60;31.92;;;8.60;99.90;;;;;;5122387;27;20067;-72
2022/11/29 02:50:36;;;;;;;137.60;31.15;;;8.60;99.90;;;;;;5068439;27;20386;-72
2022/11/29 02:53:14;;;;;;;98.35;26.38;;;8.60;99.90;;;;;;5105708;28;20081;-72
2022/11/29 02:56:06;;;;;;;81.90;25.17;;;8.60;99.90;;;;;;5118650;27;20063;-72
2022/11/29 02:58:44;;;;;;;74.25;24.10;;;8.60;99.90;;;;;;5130734;27;20177;-72
2022/11/29 03:01:31;;;;;;;94.63;26.92;;;8.60;99.90;;;;;;5114236;28;20039;-71
2022/11/29 03:04:25;;;;;;;108.50;28.42;;;8.60;99.90;;;;;;5128014;28;20035;-72
2022/11/29 03:07:06;;;;;;;78.20;24.55;;;8.60;99.90;;;;;;5129179;27;20051;-73
2022/11/29 03:09:43;;;;;;;89.10;25.63;;;8.60;99.90;;;;;;5110817;27;20086;-72
2022/11/29 03:12:09;;;;;;;90.10;25.75;;;8.60;99.90;;;;;;5123334;27;20074;-72
2022/11/29 03:14:51;;;;;;;108.57;27.45;;;8.50;99.90;;;;;;5120474;27;20047;-72
2022/11/29 03:17:23;;;;;;;81.95;25.55;;;8.60;99.90;;;;;;5128432;28;20047;-72
2022/11/29 03:20:20;;;;;;;124.05;27.50;;;8.50;99.90;;;;;;5128078;28;20051;-72
2022/11/29 03:23:00;;;;;;;120.07;28.48;;;8.50;99.90;;;;;;5114836;27;20115;-72
2022/11/29 03:25:35;;;;;;;92.60;25.80;;;8.50;99.90;;;;;;5131668;27;20412;-72
2022/11/29 03:28:10;;;;;;;85.47;24.65;;;8.50;99.90;;;;;;5112503;28;20081;-73
2022/11/29 03:30:38;;;;;;;69.05;23.98;;;8.50;99.90;;;;;;5126931;27;20043;-72
2022/11/29 03:33:29;;;;;;;123.07;29.90;;;8.50;99.90;;;;;;5126786;28;20103;-72
2022/11/29 03:36:15;;;;;;;75.97;23.85;;;8.50;99.90;;;;;;5126015;27;20047;-72
2022/11/29 03:38:43;;;;;;;101.13;27.63;;;8.50;99.90;;;;;;5122229;28;20054;-72
2022/11/29 03:41:09;;;;;;;137.67;30.57;;;8.50;99.90;;;;;;5124288;27;20078;-71
2022/11/29 03:43:44;;;;;;;69.78;22.85;;;8.50;99.90;;;;;;5101768;27;20287;-72
2022/11/29 03:46:16;;;;;;;80.60;24.77;;;8.50;99.90;;;;;;5102397;28;20486;-72
2022/11/29 03:48:47;;;;;;;115.00;28.80;;;8.50;99.90;;;;;;5129312;27;20046;-72
2022/11/29 03:51:22;;;;;;;168.67;35.33;;;8.50;99.90;;;;;;5132341;27;20043;-72
2022/11/29 03:53:55;;;;;;;86.57;26.83;;;8.50;99.90;;;;;;5126527;28;20044;-72
2022/11/29 03:56:27;;;;;;;106.85;26.25;;;8.40;99.90;;;;;;5111928;28;20035;-72
2022/11/29 03:59:38;;;;;;;111.43;29.13;;;8.40;99.90;;;;;;5123779;27;21343;-72
2022/11/29 04:02:35;;;;;;;93.20;26.00;;;8.40;99.90;;;;;;5111480;27;20059;-73
2022/11/29 04:05:12;;;;;;;84.57;24.95;;;8.40;99.90;;;;;;5128195;27;20752;-72
2022/11/29 04:07:48;;;;;;;100.95;27.42;;;8.30;99.90;;;;;;5103011;27;20051;-72
2022/11/29 04:10:46;;;;;;;96.40;26.13;;;8.40;99.90;;;;;;5104583;27;20377;-72
2022/11/29 04:13:34;;;;;;;95.17;28.00;;;8.40;99.90;;;;;;5134844;27;20057;-72
2022/11/29 04:16:12;;;;;;;79.30;23.87;;;8.30;99.90;;;;;;5128185;27;20047;-72
2022/11/29 04:19:02;;;;;;;96.05;27.17;;;8.40;99.90;;;;;;5134762;27;20043;-72
2022/11/29 04:21:37;;;;;;;121.53;27.38;;;8.30;99.90;;;;;;5128186;27;20044;-72
2022/11/29 04:24:40;;;;;;;124.27;31.20;;;8.40;99.90;;;;;;5117143;27;20047;-72
2022/11/29 04:27:25;;;;;;;;;;;8.40;99.90;;;;;;5129509;27;20054;-73
2022/11/29 04:30:03;;;;;;;124.17;29.33;;;8.30;99.90;;;;;;5128910;27;20275;-72
2022/11/29 04:32:32;;;;;;;121.00;28.05;;;8.30;99.90;;;;;;5124373;27;20055;-72
2022/11/29 04:35:19;;;;;;;174.20;33.33;;;8.30;99.90;;;;;;5122305;27;20047;-72
2022/11/29 04:37:54;;;;;;;107.97;26.70;;;8.30;99.90;;;;;;5120756;27;20406;-73
2022/11/29 04:40:25;;;;;;;124.13;28.87;;;8.30;99.90;;;;;;5132051;27;20042;-72
2022/11/29 04:43:29;;;;;;;94.72;25.05;;;8.30;99.90;;;;;;5130093;27;20132;-72
2022/11/29 04:46:19;;;;;;;151.37;32.17;;;8.30;99.90;;;;;;5132152;27;20531;-72
2022/11/29 04:49:06;;;;;;;67.53;21.80;;;8.30;99.90;;;;;;5130166;27;20083;-73
2022/11/29 04:52:07;;;;;;;106.87;25.57;;;8.30;99.90;;;;;;5096782;27;20051;-72
2022/11/29 04:55:03;;;;;;;124.50;28.40;;;8.30;99.90;;;;;;5109818;27;20058;-72
2022/11/29 04:58:05;;;;;;;106.95;24.77;;;8.30;99.90;;;;;;5107879;27;20047;-72
2022/11/29 05:00:38;;;;;;;;;;;8.30;99.90;;;;;;5120643;27;20598;-72
2022/11/29 05:03:29;;;;;;;56.90;21.65;;;8.20;99.90;;;;;;5114028;27;19982;-72
2022/11/29 05:06:26;;;;;;;98.43;24.00;;;8.20;99.90;;;;;;5107411;27;20059;-72
2022/11/29 05:09:09;;;;;;;70.53;22.17;;;8.20;99.90;;;;;;5130790;27;20047;-72
2022/11/29 05:11:47;;;;;;;80.13;22.73;;;8.20;99.90;;;;;;5131900;27;20035;-72
2022/11/29 05:14:38;;;;;;;92.93;24.07;;;8.20;99.90;;;;;;5104380;27;20075;-72
2022/11/29 05:17:36;;;;;;;112.77;25.03;;;8.20;99.90;;;;;;5126551;27;20511;-72
2022/11/29 05:20:26;;;;;;;87.23;22.70;;;8.20;99.90;;;;;;5124054;27;20045;-72
2022/11/29 05:23:00;;;;;;;72.30;20.33;;;8.10;99.90;;;;;;5126097;27;20043;-73
2022/11/29 05:25:53;;;;;;;70.37;21.13;;;8.20;99.90;;;;;;5122919;27;20054;-71
2022/11/29 05:28:41;;;;;;;101.27;24.43;;;8.10;99.90;;;;;;5090019;27;20165;-71
2022/11/29 05:31:31;;;;;;;48.67;18.67;;;8.10;99.90;;;;;;5128942;27;20108;-72
2022/11/29 05:34:22;;;;;;;71.30;23.67;;;8.10;99.90;;;;;;5131368;27;20051;-72
2022/11/29 05:37:00;;;;;;;69.53;22.23;;;8.10;99.90;;;;;;5131654;27;20051;-72
2022/11/29 05:39:40;;;;;;;80.67;23.13;;;8.10;99.90;;;;;;5113807;27;20053;-72
2022/11/29 05:42:49;;;;;;;78.97;21.33;;;8.10;99.90;;;;;;5127049;27;20058;-72
2022/11/29 05:45:44;;;;;;;69.77;21.40;;;8.10;99.90;;;;;;5111008;27;20043;-77
2022/11/29 05:48:23;;;;;;;68.63;21.13;;;8.10;99.90;;;;;;5111223;27;20076;-73
2022/11/29 05:51:26;;;;;;;60.97;20.57;;;8.10;99.90;;;;;;5123524;27;20051;-73
2022/11/29 05:54:24;;;;;;;;;;;8.00;99.90;;;;;;5132837;27;20145;-73
2022/11/29 05:57:12;;;;;;;48.77;18.50;;;8.00;99.90;;;;;;5089758;27;19923;-74
2022/11/29 05:59:40;;;;;;;61.40;19.63;;;8.00;99.90;;;;;;5104898;27;20039;-71
2022/11/29 06:02:14;;;;;;;46.40;19.20;;;8.00;99.90;;;;;;5104244;27;20056;-72
2022/11/29 06:04:48;;;;;;;71.63;22.67;;;8.00;99.90;;;;;;5101181;27;20075;-72
2022/11/29 06:07:43;;;;;;;45.67;18.67;;;8.00;99.90;;;;;;5125420;27;20046;-72
2022/11/29 06:10:17;;;;;;;67.00;20.77;;;8.00;99.90;;;;;;5124527;27;20068;-71
2022/11/29 06:12:56;;;;;;;84.33;21.23;;;8.00;99.90;;;;;;5121478;27;20114;-71
2022/11/29 06:15:49;;;;;;;60.50;19.93;;;8.00;99.90;;;;;;5121435;27;20038;-71
2022/11/29 06:18:36;;;;;;;57.77;20.57;;;7.90;99.90;;;;;;5126712;27;20042;-71
2022/11/29 06:21:21;;;;;;;84.03;22.90;;;7.90;99.90;;;;;;5133195;27;20066;-70
2022/11/29 06:24:01;;;;;;;50.33;19.17;;;8.00;99.90;;;;;;5119997;27;20134;-70
2022/11/29 06:26:51;;;;;;;51.47;18.30;;;7.90;99.90;;;;;;5135199;27;20074;-70
2022/11/29 06:29:36;;;;;;;55.50;19.57;;;8.00;99.90;;;;;;5133072;27;20039;-70
2022/11/29 06:32:24;;;;;;;46.67;17.87;;;7.90;99.90;;;;;;5133291;27;20157;-70
2022/11/29 06:34:58;;;;;;;42.80;17.63;;;7.90;99.90;;;;;;5120892;27;20059;-70
2022/11/29 06:37:35;;;;;;;51.57;19.20;;;7.90;99.90;;;;;;5129375;27;20434;-70
2022/11/29 06:40:01;;;;;;;73.67;21.80;;;7.90;99.90;;;;;;5134714;27;20231;-70
2022/11/29 06:42:26;;;;;;;44.77;18.53;;;7.90;99.90;;;;;;5131788;27;20493;-70
2022/11/29 06:44:52;;;;;;;60.10;19.57;;;7.90;99.90;;;;;;5137270;27;20106;-70
2022/11/29 06:47:30;;;;;;;45.57;17.93;;;7.90;99.90;;;;;;5082930;27;20047;-70
2022/11/29 06:50:12;;;;;;;35.07;16.53;;;7.90;99.90;;;;;;5132881;27;20039;-70
2022/11/29 06:53:03;;;;;;;42.65;16.42;;;7.90;99.90;;;;;;5131636;27;20071;-70
2022/11/29 06:56:05;;;;;;;43.93;18.13;;;7.90;99.90;;;;;;5137236;27;20038;-70
2022/11/29 06:58:40;;;;;;;54.60;18.80;;;7.90;99.90;;;;;;5104516;28;20035;-70
2022/11/29 07:01:21;;;;;;;40.63;17.37;;;7.80;99.90;;;;;;5116399;27;20049;-70
2022/11/29 07:04:08;;;;;;;44.53;18.97;;;7.90;99.90;;;;;;5125890;27;20054;-70
2022/11/29 07:06:35;;;;;;;56.70;18.43;;;7.90;99.90;;;;;;5134714;27;20035;-70
2022/11/29 07:09:15;;;;;;;54.27;17.77;;;7.90;99.90;;;;;;5136042;27;20071;-70
2022/11/29 07:11:41;;;;;;;42.30;17.07;;;7.90;99.90;;;;;;5133890;27;20039;-70
2022/11/29 07:14:08;;;;;;;42.10;17.00;;;7.80;99.90;;;;;;5120431;28;20745;-70
2022/11/29 07:16:52;;;;;;;53.73;18.17;;;7.90;99.90;;;;;;5134321;27;20047;-70
2022/11/29 07:20:01;;;;;;;57.93;18.67;;;7.90;99.90;;;;;;5137930;27;20053;-70
2022/11/29 07:22:58;;;;;;;57.33;19.30;;;7.80;99.90;;;;;;5117484;27;20068;-70
2022/11/29 07:25:40;;;;;;;56.93;19.20;;;7.80;99.90;;;;;;5122338;27;20059;-70
2022/11/29 07:28:28;;;;;;;67.45;20.30;;;7.80;99.90;;;;;;5140629;27;20406;-70
2022/11/29 07:31:19;;;;;;;41.50;17.30;;;7.80;99.90;;;;;;5115255;28;20056;-70
2022/11/29 07:33:51;;;;;;;33.93;16.27;;;7.80;99.90;;;;;;5134822;27;20065;-70
2022/11/29 07:36:36;;;;;;;44.15;17.27;;;7.80;99.90;;;;;;5159201;27;20046;-70
2022/11/29 07:39:39;;;;;;;39.17;16.90;;;7.80;99.90;;;;;;5136907;27;20070;-70
2022/11/29 07:42:10;;;;;;;46.53;19.10;;;7.80;99.90;;;;;;5137616;27;20047;-70
2022/11/29 07:45:08;;;;;;;42.35;17.15;;;7.80;99.90;;;;;;5145741;27;20043;-70
2022/11/29 07:47:34;;;;;;;56.53;19.93;;;7.80;99.90;;;;;;5135540;27;20050;-70
2022/11/29 07:50:00;;;;;;;67.40;20.73;;;7.80;99.90;;;;;;5120953;27;20103;-70
2022/11/29 07:52:26;;;;;;;47.97;19.40;;;7.90;99.90;;;;;;5120879;27;20059;-70
2022/11/29 07:54:52;;;;;;;73.77;21.50;;;7.90;99.90;;;;;;5103463;27;20394;-70
2022/11/29 07:57:18;;;;;;;53.63;18.10;;;7.80;99.90;;;;;;5139095;27;20039;-70
2022/11/29 07:59:43;;;;;;;66.90;21.33;;;7.90;99.90;;;;;;5155457;27;20042;-70
2022/11/29 08:02:10;;;;;;;54.30;18.23;;;7.80;99.90;;;;;;5148950;27;20498;-70
2022/11/29 08:04:45;;;;;;;57.40;20.13;;;7.90;99.90;;;;;;5123209;27;20100;-70
2022/11/29 08:07:11;;;;;;;54.37;18.83;;;7.90;99.90;;;;;;5123174;27;20101;-70
2022/11/29 08:09:36;;;;;;;55.63;20.50;;;7.90;99.90;;;;;;5139165;27;20043;-70
2022/11/29 08:12:03;;;;;;;53.23;20.03;;;7.90;99.90;;;;;;5152527;27;20043;-70
2022/11/29 08:14:32;;;;;;;67.90;20.47;;;8.00;99.90;;;;;;5113647;27;20043;-70
2022/11/29 08:16:57;;;;;;;44.43;18.60;;;8.00;99.90;;;;;;5122402;27;20054;-70
2022/11/29 08:19:23;;;;;;;57.97;20.13;;;8.00;99.90;;;;;;5138276;27;20050;-70
2022/11/29 08:21:49;;;;;;;59.63;20.07;;;8.00;99.90;;;;;;5133152;27;20110;-70
2022/11/29 08:24:15;;;;;;;42.87;16.93;;;8.00;99.90;;;;;;5144383;27;20043;-70
2022/11/29 08:26:41;;;;;;;49.77;18.30;;;8.00;99.90;;;;;;5151150;27;20038;-69
2022/11/29 08:29:07;;;;;;;62.97;21.37;;;8.00;99.90;;;;;;5119262;27;20058;-70
2022/11/29 08:31:32;;;;;;;35.10;15.63;;;8.00;99.90;;;;;;5120824;27;20072;-71
2022/11/29 08:33:58;;;;;;;37.37;17.37;;;8.10;99.90;;;;;;5134808;27;20043;-69
2022/11/29 08:36:24;;;;;;;47.13;17.80;;;8.00;99.90;;;;;;5120334;27;20500;-70
2022/11/29 08:38:49;;;;;;;43.95;17.63;;;8.00;99.90;;;;;;5146655;27;20042;-71
2022/11/29 08:41:16;;;;;;;43.27;17.67;;;8.10;99.90;;;;;;5107776;27;20126;-70
2022/11/29 08:43:42;;;;;;;41.53;17.20;;;8.10;99.90;;;;;;5121304;27;20039;-70
2022/11/29 08:46:09;;;;;;;45.13;18.02;;;8.10;99.90;;;;;;5151824;27;20043;-70
2022/11/29 08:48:35;;;;;;;42.07;17.87;;;8.10;99.90;;;;;;5156973;27;20113;-70
2022/11/29 08:51:02;;;;;;;44.93;18.13;;;8.20;99.90;;;;;;5104446;27;20031;-70
2022/11/29 08:53:40;;;;;;;38.77;17.40;;;8.20;99.90;;;;;;5138057;27;20395;-70
2022/11/29 08:56:12;;;;;;;37.20;16.00;;;8.20;99.90;;;;;;5120360;27;20099;-70
2022/11/29 08:58:38;;;;;;;;;;;8.20;99.90;;;;;;5120006;27;20500;-69
2022/11/29 09:01:05;;;;;;;52.03;17.80;;;8.10;99.90;;;;;;5132976;27;19924;-70
2022/11/29 09:06:16;;;;;;;31.60;15.57;;;8.20;99.90;;;;;;5137663;27;20063;-70
2022/11/29 09:08:43;;;;;;;38.03;16.25;;;8.20;99.90;;;;;;5145935;27;20039;-70
2022/11/29 09:11:12;;;;;;;34.10;14.83;;;8.20;99.90;;;;;;5144552;27;20131;-71
2022/11/29 09:13:39;;;;;;;31.52;14.73;;;8.20;99.90;;;;;;5149307;27;20074;-69
2022/11/29 09:16:07;;;;;;;34.03;15.37;;;8.20;99.90;;;;;;5136215;27;20441;-70
2022/11/29 09:18:37;;;;;;;30.23;14.53;;;8.30;99.90;;;;;;5113647;27;20050;-70
2022/11/29 09:21:13;;;;;;;27.50;13.93;;;8.30;99.90;;;;;;5128573;27;20050;-70
2022/11/29 09:23:40;;;;;;;30.97;14.50;;;8.30;99.90;;;;;;5133014;27;20044;-70
2022/11/29 09:26:08;;;;;;;28.47;13.27;;;8.30;99.90;;;;;;5116042;27;20050;-70
2022/11/29 09:28:34;;;;;;;32.50;14.33;;;8.30;99.90;;;;;;5133155;27;20072;-70
2022/11/29 09:31:04;;;;;;;29.87;13.23;;;8.40;99.90;;;;;;5134057;27;20043;-70
2022/11/29 09:33:30;;;;;;;30.87;14.37;;;8.40;99.90;;;;;;5136462;27;20095;-70
2022/11/29 09:35:57;;;;;;;29.10;13.77;;;8.40;99.90;;;;;;5118558;27;20067;-71
2022/11/29 09:38:23;;;;;;;29.87;13.33;;;8.40;99.90;;;;;;5110838;27;20043;-70
2022/11/29 09:41:00;;;;;;;29.83;14.10;;;8.40;99.90;;;;;;5131698;27;20052;-70
2022/11/29 09:43:38;;;;;;;30.30;13.50;;;8.40;99.90;;;;;;5134428;27;20420;-70
2022/11/29 09:46:33;;;;;;;32.17;14.13;;;8.40;99.90;;;;;;5128081;27;20082;-70
2022/11/29 09:49:33;;;;;;;28.33;13.47;;;8.40;99.90;;;;;;5121874;27;20039;-70
2022/11/29 09:52:07;;;;;;;33.40;13.17;;;8.40;99.90;;;;;;5126274;27;20062;-70
2022/11/29 09:55:09;;;;;;;28.63;14.13;;;8.40;99.90;;;;;;5127913;27;20039;-71
2022/11/29 09:57:37;;;;;;;29.23;13.27;;;8.40;99.90;;;;;;5132665;27;20097;-71
2022/11/29 10:00:06;;;;;;;26.93;12.87;;;8.40;99.90;;;;;;5127508;27;20039;-70
2022/11/29 10:02:50;;;;;;;28.97;13.40;;;8.50;99.90;;;;;;5116806;27;20419;-70
2022/11/29 10:05:28;;;;;;;28.30;13.67;;;8.50;99.90;;;;;;5120443;27;20077;-70
2022/11/29 10:08:01;;;;;;;26.40;12.73;;;8.50;99.90;;;;;;5122902;27;20100;-70
2022/11/29 10:10:30;;;;;;;26.53;11.93;;;8.50;99.90;;;;;;5125377;27;20047;-70
2022/11/29 10:13:04;;;;;;;31.23;13.60;;;8.50;99.90;;;;;;5135043;27;20043;-70
2022/11/29 10:15:37;;;;;;;32.17;13.30;;;8.60;99.90;;;;;;5123196;27;20050;-70
2022/11/29 10:18:26;;;;;;;28.43;11.80;;;8.60;99.90;;;;;;5123457;27;20120;-70
2022/11/29 10:20:59;;;;;;;25.40;12.63;;;8.60;99.90;;;;;;5136632;27;20545;-70
2022/11/29 10:23:40;;;;;;;28.40;13.17;;;8.60;99.90;;;;;;5134877;27;20035;-70
2022/11/29 10:26:07;;;;;;;26.80;12.20;;;8.60;99.90;;;;;;5098393;28;20075;-71
2022/11/29 10:28:35;;;;;;;26.83;12.30;;;8.60;99.90;;;;;;5124959;27;20041;-71
2022/11/29 10:31:11;;;;;;;32.63;13.87;;;8.60;99.90;;;;;;5132220;27;20047;-70
2022/11/29 10:33:39;;;;;;;31.83;13.02;;;8.60;99.90;;;;;;5130313;27;20047;-70
2022/11/29 10:36:33;;;;;;;29.17;12.80;;;8.70;99.90;;;;;;5108495;27;20040;-70
2022/11/29 10:39:04;;;;;;;23.30;11.93;;;8.70;99.90;;;;;;5125002;27;20043;-70
2022/11/29 10:41:30;;;;;;;28.60;12.18;;;8.70;99.90;;;;;;5115127;28;20047;-70
2022/11/29 10:43:58;;;;;;;25.08;11.52;;;8.70;99.90;;;;;;5130658;27;20039;-70
2022/11/29 10:46:29;;;;;;;30.00;12.60;;;8.80;99.90;;;;;;5117490;27;20051;-70
2022/11/29 10:48:57;;;;;;;24.30;11.27;;;8.80;99.90;;;;;;5123049;27;20039;-70
2022/11/29 10:51:23;;;;;;;27.90;12.68;;;8.80;99.90;;;;;;5111981;27;20099;-70
2022/11/29 10:53:53;;;;;;;30.30;12.33;;;8.80;99.90;;;;;;5099986;28;20079;-69
2022/11/29 10:56:28;;;;;;;24.17;11.43;;;8.80;99.90;;;;;;5107613;28;20054;-70
2022/11/29 10:59:04;;;;;;;29.27;12.17;;;8.80;99.90;;;;;;5123033;28;20458;-70
2022/11/29 11:01:41;;;;;;;22.77;11.38;;;8.90;99.90;;;;;;5112176;28;20092;-70
2022/11/29 11:04:23;;;;;;;25.20;12.02;;;8.90;99.90;;;;;;5126849;28;20449;-71
2022/11/29 11:06:55;;;;;;;21.10;10.82;;;8.90;99.90;;;;;;5115216;28;20075;-70
2022/11/29 11:10:02;;;;;;;27.00;11.85;;;8.80;99.90;;;;;;5120214;27;20048;-70
2022/11/29 11:12:33;;;;;;;21.80;11.40;;;8.80;99.90;;;;;;5102751;27;20081;-70
2022/11/29 11:15:23;;;;;;;21.80;11.23;;;8.80;99.90;;;;;;5133240;27;20047;-71
2022/11/29 11:18:03;;;;;;;27.45;11.63;;;8.80;99.90;;;;;;5134268;27;20135;-70
2022/11/29 11:20:32;;;;;;;26.02;10.93;;;8.80;99.90;;;;;;5121888;27;20422;-69
2022/11/29 11:23:04;;;;;;;23.65;11.05;;;8.80;99.90;;;;;;5118615;27;20055;-70
2022/11/29 11:25:37;;;;;;;26.73;11.90;;;8.80;99.90;;;;;;5120396;27;20039;-70
2022/11/29 11:28:19;;;;;;;;;;;8.80;99.90;;;;;;5123976;27;20047;-71
2022/11/29 11:31:07;;;;;;;28.60;11.05;;;8.70;99.90;;;;;;5111009;27;19923;-69
2022/11/29 11:33:43;;;;;;;27.88;11.07;;;8.70;99.90;;;;;;5124091;27;20045;-70
2022/11/29 11:36:22;;;;;;;26.63;11.63;;;8.70;99.90;;;;;;5132740;27;20047;-70
2022/11/29 11:38:53;;;;;;;26.13;11.77;;;8.70;99.90;;;;;;5135492;27;20467;-70
2022/11/29 11:44:21;;;;;;;25.93;11.43;;;8.70;99.90;;;;;;5124211;27;20119;-70
2022/11/29 11:46:49;;;;;;;24.15;11.57;;;8.80;99.90;;;;;;5125277;27;20574;-70
2022/11/29 11:49:36;;;;;;;32.30;12.45;;;8.80;99.90;;;;;;5109263;28;20048;-70
2022/11/29 11:52:04;;;;;;;27.40;12.93;;;8.90;99.90;;;;;;5125126;27;20197;-70
2022/11/29 11:54:31;;;;;;;32.50;12.82;;;8.90;99.90;;;;;;5121642;27;20130;-70
2022/11/29 11:56:57;;;;;;;29.77;12.48;;;8.90;99.90;;;;;;5120622;27;20051;-70
2022/11/29 11:59:25;;;;;;;31.53;13.03;;;9.00;99.90;;;;;;5118795;27;20284;-70
2022/11/29 12:01:52;;;;;;;28.70;12.10;;;8.90;99.90;;;;;;5118241;27;20437;-70
2022/11/29 12:04:32;;;;;;;24.67;12.47;;;9.00;99.90;;;;;;5117694;27;20053;-70
2022/11/29 12:07:01;;;;;;;24.92;13.18;;;9.00;99.90;;;;;;5102668;28;20052;-70
2022/11/29 12:09:46;;;;;;;28.92;11.63;;;9.00;99.90;;;;;;5132923;27;20086;-70
2022/11/29 12:12:25;;;;;;;24.17;12.70;;;9.10;99.90;;;;;;5092070;28;20074;-70
2022/11/29 12:15:06;;;;;;;29.50;13.30;;;9.10;99.90;;;;;;5107340;27;20043;-70
2022/11/29 12:17:35;;;;;;;34.07;13.20;;;9.10;99.90;;;;;;5125477;27;20052;-70
2022/11/29 12:20:11;;;;;;;31.90;13.48;;;9.10;99.90;;;;;;5134746;27;20593;-70
2022/11/29 12:23:10;;;;;;;29.92;13.10;;;9.20;99.90;;;;;;5118775;27;20039;-71
2022/11/29 12:25:49;;;;;;;33.28;13.60;;;9.20;99.90;;;;;;5103883;27;20046;-70
2022/11/29 12:28:17;;;;;;;29.40;13.32;;;9.20;99.90;;;;;;5126805;27;20775;-71
2022/11/29 12:30:52;;;;;;;34.53;14.10;;;9.30;99.90;;;;;;5127166;27;20062;-70
2022/11/29 12:33:38;;;;;;;33.30;14.23;;;9.30;99.90;;;;;;5124957;27;20080;-70
2022/11/29 12:36:20;;;;;;;34.30;14.52;;;9.30;99.90;;;;;;5097743;27;20181;-70
2022/11/29 12:38:53;;;;;;;;;;;9.30;99.90;;;;;;5113757;27;20035;-70
2022/11/29 12:41:44;;;;;;;27.85;12.90;;;9.30;99.90;;;;;;5113077;27;19923;-70
2022/11/29 12:44:23;;;;;;;31.40;14.07;;;9.30;99.90;;;;;;5078978;27;20047;-70
2022/11/29 12:47:18;;;;;;;34.65;13.65;;;9.40;99.90;;;;;;5117879;27;20043;-71
2022/11/29 12:50:16;;;;;;;36.75;14.38;;;9.40;99.90;;;;;;5078949;27;20051;-71
2022/11/29 12:52:54;;;;;;;35.10;13.82;;;9.40;99.90;;;;;;5099631;28;20135;-71
2022/11/29 12:55:38;;;;;;;30.23;14.52;;;9.30;99.90;;;;;;5135468;27;20075;-70
2022/11/29 12:58:15;;;;;;;31.10;14.30;;;9.40;99.90;;;;;;5132169;27;20054;-71
2022/11/29 13:01:03;;;;;;;28.17;14.07;;;9.40;99.90;;;;;;5137743;27;20104;-70
2022/11/29 13:03:47;;;;;;;32.78;14.38;;;9.40;99.90;;;;;;5120098;27;20061;-70
2022/11/29 13:06:27;;;;;;;30.02;13.88;;;9.40;99.90;;;;;;5126986;27;20450;-70
2022/11/29 13:09:19;;;;;;;36.28;14.55;;;9.40;99.90;;;;;;5115922;27;20050;-70
2022/11/29 13:11:57;;;;;;;24.73;13.95;;;9.40;99.90;;;;;;5124312;27;20056;-70
2022/11/29 13:14:45;;;;;;;25.70;13.50;;;9.40;99.90;;;;;;5099481;27;20058;-70
2022/11/29 13:17:25;;;;;;;22.35;12.55;;;9.40;99.90;;;;;;5102100;28;20044;-70
2022/11/29 13:20:08;;;;;;;24.30;13.43;;;9.40;99.90;;;;;;5100789;28;20048;-71
2022/11/29 13:23:09;;;;;;;22.45;12.57;;;9.40;99.90;;;;;;5096534;28;20055;-69
2022/11/29 13:25:39;;;;;;;22.10;11.60;;;9.30;99.90;;;;;;5117081;27;20073;-70
2022/11/29 13:28:10;;;;;;;18.70;11.50;;;9.30;99.90;;;;;;5123214;27;20031;-70
2022/11/29 13:30:38;;;;;;;21.45;11.88;;;9.30;99.90;;;;;;5128367;27;20448;-70